sensor_id;sensor_type;location;lat;lon;timestamp;temperature;humidity
28654;DHT22;24320;56.980;24.336;2023-04-15T00:01:02;9.50;90.70
28654;DHT22;24320;56.980;24.336;2023-04-15T00:03:30;9.50;90.30
28654;DHT22;24320;56.980;24.336;2023-04-15T00:05:57;9.40;90.70
28654;DHT22;24320;56.980;24.336;2023-04-15T00:08:25;9.40;91.00
28654;DHT22;24320;56.980;24.336;2023-04-15T00:10:52;9.40;91.20
28654;DHT22;24320;56.980;24.336;2023-04-15T00:13:19;9.30;90.80
28654;DHT22;24320;56.980;24.336;2023-04-15T00:15:46;9.30;91.20
28654;DHT22;24320;56.980;24.336;2023-04-15T00:18:13;9.30;91.00
28654;DHT22;24320;56.980;24.336;2023-04-15T00:20:40;9.20;91.00
28654;DHT22;24320;56.980;24.336;2023-04-15T00:23:16;9.30;90.80
28654;DHT22;24320;56.980;24.336;2023-04-15T00:25:43;9.30;91.00
28654;DHT22;24320;56.980;24.336;2023-04-15T00:28:11;9.20;90.50
28654;DHT22;24320;56.980;24.336;2023-04-15T00:30:38;9.20;90.60
28654;DHT22;24320;56.980;24.336;2023-04-15T00:33:05;9.30;90.60
28654;DHT22;24320;56.980;24.336;2023-04-15T00:35:32;9.20;91.20
28654;DHT22;24320;56.980;24.336;2023-04-15T00:37:59;9.20;91.00
28654;DHT22;24320;56.980;24.336;2023-04-15T00:40:26;9.20;90.50
28654;DHT22;24320;56.980;24.336;2023-04-15T00:42:53;9.10;90.60
28654;DHT22;24320;56.980;24.336;2023-04-15T00:45:20;9.10;90.80
28654;DHT22;24320;56.980;24.336;2023-04-15T00:47:48;9.10;91.40
28654;DHT22;24320;56.980;24.336;2023-04-15T00:50:15;9.10;91.10
28654;DHT22;24320;56.980;24.336;2023-04-15T00:52:42;9.00;91.10
28654;DHT22;24320;56.980;24.336;2023-04-15T00:55:09;9.00;91.00
28654;DHT22;24320;56.980;24.336;2023-04-15T00:57:38;9.00;91.00
28654;DHT22;24320;56.980;24.336;2023-04-15T01:00:05;9.00;91.20
28654;DHT22;24320;56.980;24.336;2023-04-15T01:02:37;9.00;90.50
28654;DHT22;24320;56.980;24.336;2023-04-15T01:05:05;9.00;90.50
28654;DHT22;24320;56.980;24.336;2023-04-15T01:07:33;9.00;90.90
28654;DHT22;24320;56.980;24.336;2023-04-15T01:10:00;8.90;91.00
28654;DHT22;24320;56.980;24.336;2023-04-15T01:12:31;8.90;90.60
28654;DHT22;24320;56.980;24.336;2023-04-15T01:14:59;8.90;90.80
28654;DHT22;24320;56.980;24.336;2023-04-15T01:17:28;8.90;90.50
28654;DHT22;24320;56.980;24.336;2023-04-15T01:19:55;8.90;90.20
28654;DHT22;24320;56.980;24.336;2023-04-15T01:22:26;8.90;90.10
28654;DHT22;24320;56.980;24.336;2023-04-15T01:25:16;8.90;90.40
28654;DHT22;24320;56.980;24.336;2023-04-15T01:27:43;8.90;90.80
28654;DHT22;24320;56.980;24.336;2023-04-15T01:30:11;8.90;90.60
28654;DHT22;24320;56.980;24.336;2023-04-15T01:32:38;8.80;90.50
28654;DHT22;24320;56.980;24.336;2023-04-15T01:35:05;8.80;90.00
28654;DHT22;24320;56.980;24.336;2023-04-15T01:37:33;8.80;90.20
28654;DHT22;24320;56.980;24.336;2023-04-15T01:40:00;8.90;89.60
28654;DHT22;24320;56.980;24.336;2023-04-15T01:42:27;8.90;89.60
28654;DHT22;24320;56.980;24.336;2023-04-15T01:44:54;8.80;90.00
28654;DHT22;24320;56.980;24.336;2023-04-15T01:47:22;8.80;89.30
28654;DHT22;24320;56.980;24.336;2023-04-15T01:49:49;8.80;88.70
28654;DHT22;24320;56.980;24.336;2023-04-15T01:52:16;8.80;88.50
28654;DHT22;24320;56.980;24.336;2023-04-15T01:54:43;8.80;89.50
28654;DHT22;24320;56.980;24.336;2023-04-15T01:57:10;8.80;88.40
28654;DHT22;24320;56.980;24.336;2023-04-15T01:59:37;8.80;88.00
28654;DHT22;24320;56.980;24.336;2023-04-15T02:02:04;8.70;87.60
28654;DHT22;24320;56.980;24.336;2023-04-15T02:04:31;8.70;87.30
28654;DHT22;24320;56.980;24.336;2023-04-15T02:06:58;8.70;86.40
28654;DHT22;24320;56.980;24.336;2023-04-15T02:09:25;8.80;86.90
28654;DHT22;24320;56.980;24.336;2023-04-15T02:11:52;8.80;86.80
28654;DHT22;24320;56.980;24.336;2023-04-15T02:14:19;8.70;87.00
28654;DHT22;24320;56.980;24.336;2023-04-15T02:16:47;8.70;87.10
28654;DHT22;24320;56.980;24.336;2023-04-15T02:19:14;8.70;86.00
28654;DHT22;24320;56.980;24.336;2023-04-15T02:21:41;8.70;86.00
28654;DHT22;24320;56.980;24.336;2023-04-15T02:24:08;8.70;86.20
28654;DHT22;24320;56.980;24.336;2023-04-15T02:26:35;8.70;85.90
28654;DHT22;24320;56.980;24.336;2023-04-15T02:29:02;8.70;85.80
28654;DHT22;24320;56.980;24.336;2023-04-15T02:31:29;8.70;85.70
28654;DHT22;24320;56.980;24.336;2023-04-15T02:33:56;8.70;85.50
28654;DHT22;24320;56.980;24.336;2023-04-15T02:36:23;8.70;85.20
28654;DHT22;24320;56.980;24.336;2023-04-15T02:41:29;8.60;85.70
28654;DHT22;24320;56.980;24.336;2023-04-15T02:43:56;8.60;85.60
28654;DHT22;24320;56.980;24.336;2023-04-15T02:46:23;8.60;85.70
28654;DHT22;24320;56.980;24.336;2023-04-15T02:48:51;8.60;85.10
28654;DHT22;24320;56.980;24.336;2023-04-15T02:51:20;8.60;85.50
28654;DHT22;24320;56.980;24.336;2023-04-15T02:53:48;8.60;84.60
28654;DHT22;24320;56.980;24.336;2023-04-15T02:56:16;8.60;85.50
28654;DHT22;24320;56.980;24.336;2023-04-15T02:58:45;8.60;85.90
28654;DHT22;24320;56.980;24.336;2023-04-15T03:01:13;8.50;85.60
28654;DHT22;24320;56.980;24.336;2023-04-15T03:03:40;8.50;85.60
28654;DHT22;24320;56.980;24.336;2023-04-15T03:06:07;8.50;85.70
28654;DHT22;24320;56.980;24.336;2023-04-15T03:08:35;8.50;86.20
28654;DHT22;24320;56.980;24.336;2023-04-15T03:11:03;8.40;85.50
28654;DHT22;24320;56.980;24.336;2023-04-15T03:13:30;8.40;86.10
28654;DHT22;24320;56.980;24.336;2023-04-15T03:15:57;8.40;86.00
28654;DHT22;24320;56.980;24.336;2023-04-15T03:18:25;8.40;85.80
28654;DHT22;24320;56.980;24.336;2023-04-15T03:20:52;8.40;85.50
28654;DHT22;24320;56.980;24.336;2023-04-15T03:23:19;8.40;85.60
28654;DHT22;24320;56.980;24.336;2023-04-15T03:25:46;8.40;86.00
28654;DHT22;24320;56.980;24.336;2023-04-15T03:28:14;8.40;86.40
28654;DHT22;24320;56.980;24.336;2023-04-15T03:30:41;8.30;85.90
28654;DHT22;24320;56.980;24.336;2023-04-15T03:33:08;8.30;86.00
28654;DHT22;24320;56.980;24.336;2023-04-15T03:35:35;8.30;86.80
28654;DHT22;24320;56.980;24.336;2023-04-15T03:38:02;8.30;86.90
28654;DHT22;24320;56.980;24.336;2023-04-15T03:40:29;8.30;86.30
28654;DHT22;24320;56.980;24.336;2023-04-15T03:42:56;8.30;85.90
28654;DHT22;24320;56.980;24.336;2023-04-15T03:45:24;8.30;86.20
28654;DHT22;24320;56.980;24.336;2023-04-15T03:47:51;8.30;86.00
28654;DHT22;24320;56.980;24.336;2023-04-15T03:50:18;8.30;85.60
28654;DHT22;24320;56.980;24.336;2023-04-15T03:52:45;8.40;85.90
28654;DHT22;24320;56.980;24.336;2023-04-15T03:55:13;8.30;86.50
28654;DHT22;24320;56.980;24.336;2023-04-15T03:57:41;8.30;86.00
28654;DHT22;24320;56.980;24.336;2023-04-15T04:00:09;8.30;86.40
28654;DHT22;24320;56.980;24.336;2023-04-15T04:02:36;8.30;87.20
28654;DHT22;24320;56.980;24.336;2023-04-15T04:05:04;8.30;87.60
28654;DHT22;24320;56.980;24.336;2023-04-15T04:07:31;8.30;86.70
28654;DHT22;24320;56.980;24.336;2023-04-15T04:09:58;8.30;86.40
28654;DHT22;24320;56.980;24.336;2023-04-15T04:12:25;8.30;86.70
28654;DHT22;24320;56.980;24.336;2023-04-15T04:14:55;8.30;87.00
28654;DHT22;24320;56.980;24.336;2023-04-15T04:17:31;8.30;86.40
28654;DHT22;24320;56.980;24.336;2023-04-15T04:19:58;8.30;86.20
28654;DHT22;24320;56.980;24.336;2023-04-15T04:22:25;8.30;86.50
28654;DHT22;24320;56.980;24.336;2023-04-15T04:24:52;8.40;85.10
28654;DHT22;24320;56.980;24.336;2023-04-15T04:27:19;8.40;85.80
28654;DHT22;24320;56.980;24.336;2023-04-15T04:29:46;8.40;85.00
28654;DHT22;24320;56.980;24.336;2023-04-15T04:32:15;8.40;85.40
28654;DHT22;24320;56.980;24.336;2023-04-15T04:34:42;8.50;85.60
28654;DHT22;24320;56.980;24.336;2023-04-15T04:37:09;8.50;85.10
28654;DHT22;24320;56.980;24.336;2023-04-15T04:39:36;8.50;84.00
28654;DHT22;24320;56.980;24.336;2023-04-15T04:42:03;8.50;85.20
28654;DHT22;24320;56.980;24.336;2023-04-15T04:44:30;8.60;84.90
28654;DHT22;24320;56.980;24.336;2023-04-15T04:46:57;8.70;84.20
28654;DHT22;24320;56.980;24.336;2023-04-15T04:49:24;8.70;84.40
28654;DHT22;24320;56.980;24.336;2023-04-15T04:51:51;8.70;84.40
28654;DHT22;24320;56.980;24.336;2023-04-15T04:54:19;8.80;84.50
28654;DHT22;24320;56.980;24.336;2023-04-15T04:56:46;8.80;85.20
28654;DHT22;24320;56.980;24.336;2023-04-15T04:59:14;8.90;84.20
28654;DHT22;24320;56.980;24.336;2023-04-15T05:01:41;8.90;83.50
28654;DHT22;24320;56.980;24.336;2023-04-15T05:04:08;9.00;83.90
28654;DHT22;24320;56.980;24.336;2023-04-15T05:06:35;9.00;83.90
28654;DHT22;24320;56.980;24.336;2023-04-15T05:09:02;9.10;84.20
28654;DHT22;24320;56.980;24.336;2023-04-15T05:11:29;9.20;84.00
28654;DHT22;24320;56.980;24.336;2023-04-15T05:13:56;9.30;84.00
28654;DHT22;24320;56.980;24.336;2023-04-15T05:16:25;9.50;82.80
28654;DHT22;24320;56.980;24.336;2023-04-15T05:18:52;9.60;83.70
28654;DHT22;24320;56.980;24.336;2023-04-15T05:21:19;9.90;81.70
28654;DHT22;24320;56.980;24.336;2023-04-15T05:23:46;10.20;82.40
28654;DHT22;24320;56.980;24.336;2023-04-15T05:26:13;10.50;81.60
28654;DHT22;24320;56.980;24.336;2023-04-15T05:28:40;10.80;79.40
28654;DHT22;24320;56.980;24.336;2023-04-15T05:31:07;10.80;79.50
28654;DHT22;24320;56.980;24.336;2023-04-15T05:33:34;10.90;78.60
28654;DHT22;24320;56.980;24.336;2023-04-15T05:36:02;10.80;77.80
28654;DHT22;24320;56.980;24.336;2023-04-15T05:38:29;10.60;78.80
28654;DHT22;24320;56.980;24.336;2023-04-15T05:40:56;10.50;80.40
28654;DHT22;24320;56.980;24.336;2023-04-15T05:43:23;10.50;80.70
28654;DHT22;24320;56.980;24.336;2023-04-15T05:45:50;10.60;80.80
28654;DHT22;24320;56.980;24.336;2023-04-15T05:48:17;10.90;80.80
28654;DHT22;24320;56.980;24.336;2023-04-15T05:50:44;10.80;78.10
28654;DHT22;24320;56.980;24.336;2023-04-15T05:53:11;10.80;78.30
28654;DHT22;24320;56.980;24.336;2023-04-15T05:55:38;10.90;78.60
28654;DHT22;24320;56.980;24.336;2023-04-15T05:58:05;11.10;78.30
28654;DHT22;24320;56.980;24.336;2023-04-15T06:00:32;11.10;77.70
28654;DHT22;24320;56.980;24.336;2023-04-15T06:02:59;11.00;78.00
28654;DHT22;24320;56.980;24.336;2023-04-15T06:05:26;10.90;77.50
28654;DHT22;24320;56.980;24.336;2023-04-15T06:07:55;10.70;77.20
28654;DHT22;24320;56.980;24.336;2023-04-15T06:10:22;10.60;79.10
28654;DHT22;24320;56.980;24.336;2023-04-15T06:12:49;10.80;78.60
28654;DHT22;24320;56.980;24.336;2023-04-15T06:15:16;11.30;79.90
28654;DHT22;24320;56.980;24.336;2023-04-15T06:17:43;11.70;77.30
28654;DHT22;24320;56.980;24.336;2023-04-15T06:20:10;12.00;77.90
28654;DHT22;24320;56.980;24.336;2023-04-15T06:22:38;12.20;75.00
28654;DHT22;24320;56.980;24.336;2023-04-15T06:25:06;12.40;74.80
28654;DHT22;24320;56.980;24.336;2023-04-15T06:27:34;12.60;74.40
28654;DHT22;24320;56.980;24.336;2023-04-15T06:30:01;12.70;72.50
28654;DHT22;24320;56.980;24.336;2023-04-15T06:32:28;12.90;73.50
28654;DHT22;24320;56.980;24.336;2023-04-15T06:34:55;13.10;71.60
28654;DHT22;24320;56.980;24.336;2023-04-15T06:37:22;13.20;72.30
28654;DHT22;24320;56.980;24.336;2023-04-15T06:39:49;13.20;70.70
28654;DHT22;24320;56.980;24.336;2023-04-15T06:42:17;13.20;72.50
28654;DHT22;24320;56.980;24.336;2023-04-15T06:44:44;13.60;73.20
28654;DHT22;24320;56.980;24.336;2023-04-15T06:47:11;14.10;72.50
28654;DHT22;24320;56.980;24.336;2023-04-15T06:49:40;14.50;70.40
28654;DHT22;24320;56.980;24.336;2023-04-15T06:52:09;14.60;68.10
28654;DHT22;24320;56.980;24.336;2023-04-15T06:54:36;14.60;68.10
28654;DHT22;24320;56.980;24.336;2023-04-15T06:57:05;14.30;66.60
28654;DHT22;24320;56.980;24.336;2023-04-15T06:59:33;14.10;68.70
28654;DHT22;24320;56.980;24.336;2023-04-15T07:02:00;14.00;68.60
28654;DHT22;24320;56.980;24.336;2023-04-15T07:04:27;13.70;69.20
28654;DHT22;24320;56.980;24.336;2023-04-15T07:06:54;13.50;70.00
28654;DHT22;24320;56.980;24.336;2023-04-15T07:09:22;13.40;70.00
28654;DHT22;24320;56.980;24.336;2023-04-15T07:11:50;13.20;69.40
28654;DHT22;24320;56.980;24.336;2023-04-15T07:14:17;13.00;72.10
28654;DHT22;24320;56.980;24.336;2023-04-15T07:16:44;13.30;70.00
28654;DHT22;24320;56.980;24.336;2023-04-15T07:19:11;13.30;69.70
28654;DHT22;24320;56.980;24.336;2023-04-15T07:21:38;13.00;70.40
28654;DHT22;24320;56.980;24.336;2023-04-15T07:24:07;12.80;71.40
28654;DHT22;24320;56.980;24.336;2023-04-15T07:26:36;12.70;72.70
28654;DHT22;24320;56.980;24.336;2023-04-15T07:29:03;12.60;71.90
28654;DHT22;24320;56.980;24.336;2023-04-15T07:31:30;12.50;72.40
28654;DHT22;24320;56.980;24.336;2023-04-15T07:33:57;12.40;71.50
28654;DHT22;24320;56.980;24.336;2023-04-15T07:36:24;12.30;72.50
28654;DHT22;24320;56.980;24.336;2023-04-15T07:38:51;12.30;72.60
28654;DHT22;24320;56.980;24.336;2023-04-15T07:41:18;12.30;74.60
28654;DHT22;24320;56.980;24.336;2023-04-15T07:43:46;12.40;74.00
28654;DHT22;24320;56.980;24.336;2023-04-15T07:46:14;12.40;73.40
28654;DHT22;24320;56.980;24.336;2023-04-15T07:48:41;12.50;74.80
28654;DHT22;24320;56.980;24.336;2023-04-15T07:51:08;12.60;75.10
28654;DHT22;24320;56.980;24.336;2023-04-15T07:53:36;12.60;72.20
28654;DHT22;24320;56.980;24.336;2023-04-15T07:56:04;12.60;73.00
28654;DHT22;24320;56.980;24.336;2023-04-15T07:58:31;12.50;73.10
28654;DHT22;24320;56.980;24.336;2023-04-15T08:00:58;12.40;72.80
28654;DHT22;24320;56.980;24.336;2023-04-15T08:03:25;12.30;74.80
28654;DHT22;24320;56.980;24.336;2023-04-15T08:05:53;12.40;75.90
28654;DHT22;24320;56.980;24.336;2023-04-15T08:08:20;12.60;75.10
28654;DHT22;24320;56.980;24.336;2023-04-15T08:10:48;12.60;74.30
28654;DHT22;24320;56.980;24.336;2023-04-15T08:13:18;12.70;73.90
28654;DHT22;24320;56.980;24.336;2023-04-15T08:15:45;12.70;74.60
28654;DHT22;24320;56.980;24.336;2023-04-15T08:18:12;12.60;74.20
28654;DHT22;24320;56.980;24.336;2023-04-15T08:20:39;12.70;75.60
28654;DHT22;24320;56.980;24.336;2023-04-15T08:23:06;12.90;74.50
28654;DHT22;24320;56.980;24.336;2023-04-15T08:25:33;12.90;74.10
28654;DHT22;24320;56.980;24.336;2023-04-15T08:28:03;12.90;75.60
28654;DHT22;24320;56.980;24.336;2023-04-15T08:30:31;13.00;74.80
28654;DHT22;24320;56.980;24.336;2023-04-15T08:32:58;13.20;74.90
28654;DHT22;24320;56.980;24.336;2023-04-15T08:35:25;13.40;76.30
28654;DHT22;24320;56.980;24.336;2023-04-15T08:37:52;13.60;75.30
28654;DHT22;24320;56.980;24.336;2023-04-15T08:40:19;13.80;75.30
28654;DHT22;24320;56.980;24.336;2023-04-15T08:42:51;14.00;73.00
28654;DHT22;24320;56.980;24.336;2023-04-15T08:45:20;13.90;72.80
28654;DHT22;24320;56.980;24.336;2023-04-15T08:47:48;13.80;73.00
28654;DHT22;24320;56.980;24.336;2023-04-15T08:50:19;13.80;73.60
28654;DHT22;24320;56.980;24.336;2023-04-15T08:52:46;13.90;73.90
28654;DHT22;24320;56.980;24.336;2023-04-15T08:55:15;14.10;74.60
28654;DHT22;24320;56.980;24.336;2023-04-15T08:57:42;14.40;72.30
28654;DHT22;24320;56.980;24.336;2023-04-15T09:00:09;14.50;74.50
28654;DHT22;24320;56.980;24.336;2023-04-15T09:02:38;14.70;72.60
28654;DHT22;24320;56.980;24.336;2023-04-15T09:05:06;15.00;73.30
28654;DHT22;24320;56.980;24.336;2023-04-15T09:07:33;15.30;72.40
28654;DHT22;24320;56.980;24.336;2023-04-15T09:10:03;15.40;70.10
28654;DHT22;24320;56.980;24.336;2023-04-15T09:12:30;15.30;70.10
28654;DHT22;24320;56.980;24.336;2023-04-15T09:14:59;15.20;71.60
28654;DHT22;24320;56.980;24.336;2023-04-15T09:17:27;15.10;70.80
28654;DHT22;24320;56.980;24.336;2023-04-15T09:20:14;14.80;69.90
28654;DHT22;24320;56.980;24.336;2023-04-15T09:22:43;14.60;70.60
28654;DHT22;24320;56.980;24.336;2023-04-15T09:27:48;14.70;70.90
28654;DHT22;24320;56.980;24.336;2023-04-15T09:30:15;14.70;69.80
28654;DHT22;24320;56.980;24.336;2023-04-15T09:32:55;14.60;70.80
28654;DHT22;24320;56.980;24.336;2023-04-15T09:35:24;14.50;71.00
28654;DHT22;24320;56.980;24.336;2023-04-15T09:37:52;14.40;71.10
28654;DHT22;24320;56.980;24.336;2023-04-15T09:43:03;14.70;71.30
28654;DHT22;24320;56.980;24.336;2023-04-15T09:45:32;14.80;70.20
28654;DHT22;24320;56.980;24.336;2023-04-15T09:50:43;14.60;70.40
28654;DHT22;24320;56.980;24.336;2023-04-15T09:53:14;14.60;70.80
28654;DHT22;24320;56.980;24.336;2023-04-15T09:56:00;14.50;70.60
28654;DHT22;24320;56.980;24.336;2023-04-15T09:58:30;14.60;70.40
28654;DHT22;24320;56.980;24.336;2023-04-15T10:00:59;14.60;69.90
28654;DHT22;24320;56.980;24.336;2023-04-15T10:03:29;14.70;70.10
28654;DHT22;24320;56.980;24.336;2023-04-15T10:05:59;14.80;70.10
28654;DHT22;24320;56.980;24.336;2023-04-15T10:08:28;14.90;72.40
28654;DHT22;24320;56.980;24.336;2023-04-15T10:10:55;15.30;71.40
28654;DHT22;24320;56.980;24.336;2023-04-15T10:13:24;15.60;72.10
28654;DHT22;24320;56.980;24.336;2023-04-15T10:16:03;15.80;67.50
28654;DHT22;24320;56.980;24.336;2023-04-15T10:18:34;15.80;67.40
28654;DHT22;24320;56.980;24.336;2023-04-15T10:21:01;15.60;67.50
28654;DHT22;24320;56.980;24.336;2023-04-15T10:23:29;15.60;68.50
28654;DHT22;24320;56.980;24.336;2023-04-15T10:25:57;15.50;68.60
28654;DHT22;24320;56.980;24.336;2023-04-15T10:28:25;15.60;68.20
28654;DHT22;24320;56.980;24.336;2023-04-15T10:30:52;15.60;67.40
28654;DHT22;24320;56.980;24.336;2023-04-15T10:33:22;15.40;68.30
28654;DHT22;24320;56.980;24.336;2023-04-15T10:35:50;15.40;69.30
28654;DHT22;24320;56.980;24.336;2023-04-15T10:38:43;15.30;67.20
28654;DHT22;24320;56.980;24.336;2023-04-15T10:41:21;15.20;67.80
28654;DHT22;24320;56.980;24.336;2023-04-15T10:43:55;15.30;68.20
28654;DHT22;24320;56.980;24.336;2023-04-15T10:46:39;15.40;68.30
28654;DHT22;24320;56.980;24.336;2023-04-15T10:49:14;15.50;68.90
28654;DHT22;24320;56.980;24.336;2023-04-15T10:51:42;15.70;68.20
28654;DHT22;24320;56.980;24.336;2023-04-15T10:54:15;15.80;68.80
28654;DHT22;24320;56.980;24.336;2023-04-15T10:57:36;15.80;68.20
28654;DHT22;24320;56.980;24.336;2023-04-15T10:59:58;15.90;66.50
28654;DHT22;24320;56.980;24.336;2023-04-15T11:05:16;16.10;67.70
28654;DHT22;24320;56.980;24.336;2023-04-15T11:12:40;16.70;67.10
28654;DHT22;24320;56.980;24.336;2023-04-15T11:15:33;16.60;67.20
28654;DHT22;24320;56.980;24.336;2023-04-15T11:18:10;16.60;66.60
28654;DHT22;24320;56.980;24.336;2023-04-15T11:20:39;16.50;66.10
28654;DHT22;24320;56.980;24.336;2023-04-15T11:23:07;16.30;66.30
28654;DHT22;24320;56.980;24.336;2023-04-15T11:25:41;16.20;66.00
28654;DHT22;24320;56.980;24.336;2023-04-15T11:28:10;16.10;68.70
28654;DHT22;24320;56.980;24.336;2023-04-15T11:30:38;16.20;69.80
28654;DHT22;24320;56.980;24.336;2023-04-15T11:33:08;16.10;67.20
28654;DHT22;24320;56.980;24.336;2023-04-15T11:35:35;16.10;66.80
28654;DHT22;24320;56.980;24.336;2023-04-15T11:38:04;16.00;65.90
28654;DHT22;24320;56.980;24.336;2023-04-15T11:40:31;15.90;67.60
28654;DHT22;24320;56.980;24.336;2023-04-15T11:43:17;15.80;66.80
28654;DHT22;24320;56.980;24.336;2023-04-15T11:45:51;15.70;68.50
28654;DHT22;24320;56.980;24.336;2023-04-15T11:48:21;15.90;68.00
28654;DHT22;24320;56.980;24.336;2023-04-15T11:50:56;15.90;68.80
28654;DHT22;24320;56.980;24.336;2023-04-15T11:53:24;16.00;66.90
28654;DHT22;24320;56.980;24.336;2023-04-15T11:56:01;16.00;66.80
28654;DHT22;24320;56.980;24.336;2023-04-15T11:58:29;16.20;65.90
28654;DHT22;24320;56.980;24.336;2023-04-15T12:00:57;16.20;65.60
28654;DHT22;24320;56.980;24.336;2023-04-15T12:03:27;16.30;68.20
28654;DHT22;24320;56.980;24.336;2023-04-15T12:06:20;16.30;66.20
28654;DHT22;24320;56.980;24.336;2023-04-15T12:13:58;15.90;67.70
28654;DHT22;24320;56.980;24.336;2023-04-15T12:16:27;16.10;67.50
28654;DHT22;24320;56.980;24.336;2023-04-15T12:18:59;16.20;64.60
28654;DHT22;24320;56.980;24.336;2023-04-15T12:21:31;16.10;64.80
28654;DHT22;24320;56.980;24.336;2023-04-15T12:24:01;15.90;65.40
28654;DHT22;24320;56.980;24.336;2023-04-15T12:26:33;15.70;66.50
28654;DHT22;24320;56.980;24.336;2023-04-15T12:29:02;15.80;67.30
28654;DHT22;24320;56.980;24.336;2023-04-15T12:31:29;15.80;66.60
28654;DHT22;24320;56.980;24.336;2023-04-15T12:33:57;15.80;65.20
28654;DHT22;24320;56.980;24.336;2023-04-15T12:36:25;15.80;65.30
28654;DHT22;24320;56.980;24.336;2023-04-15T12:39:06;15.80;65.20
28654;DHT22;24320;56.980;24.336;2023-04-15T12:42:08;15.90;69.00
28654;DHT22;24320;56.980;24.336;2023-04-15T12:44:36;16.10;65.60
28654;DHT22;24320;56.980;24.336;2023-04-15T12:47:04;16.10;64.50
28654;DHT22;24320;56.980;24.336;2023-04-15T12:49:31;16.10;66.10
28654;DHT22;24320;56.980;24.336;2023-04-15T12:52:00;16.30;68.10
28654;DHT22;24320;56.980;24.336;2023-04-15T12:54:29;16.50;67.50
28654;DHT22;24320;56.980;24.336;2023-04-15T12:56:57;16.60;66.20
28654;DHT22;24320;56.980;24.336;2023-04-15T12:59:24;16.60;65.00
28654;DHT22;24320;56.980;24.336;2023-04-15T13:01:52;16.50;63.80
28654;DHT22;24320;56.980;24.336;2023-04-15T13:04:20;16.40;63.30
28654;DHT22;24320;56.980;24.336;2023-04-15T13:06:48;16.30;63.70
28654;DHT22;24320;56.980;24.336;2023-04-15T13:09:15;16.20;64.30
28654;DHT22;24320;56.980;24.336;2023-04-15T13:11:49;16.20;66.10
28654;DHT22;24320;56.980;24.336;2023-04-15T13:14:16;16.30;65.70
28654;DHT22;24320;56.980;24.336;2023-04-15T13:16:43;16.40;63.30
28654;DHT22;24320;56.980;24.336;2023-04-15T13:19:11;16.40;63.30
28654;DHT22;24320;56.980;24.336;2023-04-15T13:21:38;16.40;64.00
28654;DHT22;24320;56.980;24.336;2023-04-15T13:24:05;16.40;63.80
28654;DHT22;24320;56.980;24.336;2023-04-15T13:26:33;16.40;63.00
28654;DHT22;24320;56.980;24.336;2023-04-15T13:29:00;16.50;64.10
28654;DHT22;24320;56.980;24.336;2023-04-15T13:31:27;16.50;62.70
28654;DHT22;24320;56.980;24.336;2023-04-15T13:33:55;16.50;63.30
28654;DHT22;24320;56.980;24.336;2023-04-15T13:36:22;16.40;62.60
28654;DHT22;24320;56.980;24.336;2023-04-15T13:38:49;16.40;64.20
28654;DHT22;24320;56.980;24.336;2023-04-15T13:41:17;16.50;62.40
28654;DHT22;24320;56.980;24.336;2023-04-15T13:43:45;16.60;62.40
28654;DHT22;24320;56.980;24.336;2023-04-15T13:46:13;16.80;61.70
28654;DHT22;24320;56.980;24.336;2023-04-15T13:48:40;16.80;61.90
28654;DHT22;24320;56.980;24.336;2023-04-15T13:51:07;16.70;61.30
28654;DHT22;24320;56.980;24.336;2023-04-15T13:53:34;16.70;60.50
28654;DHT22;24320;56.980;24.336;2023-04-15T13:56:09;16.70;61.80
28654;DHT22;24320;56.980;24.336;2023-04-15T13:58:36;16.60;60.90
28654;DHT22;24320;56.980;24.336;2023-04-15T14:01:04;16.50;60.00
28654;DHT22;24320;56.980;24.336;2023-04-15T14:03:34;16.40;61.10
28654;DHT22;24320;56.980;24.336;2023-04-15T14:06:03;16.40;63.30
28654;DHT22;24320;56.980;24.336;2023-04-15T14:08:30;16.50;62.20
28654;DHT22;24320;56.980;24.336;2023-04-15T14:10:57;16.50;61.00
28654;DHT22;24320;56.980;24.336;2023-04-15T14:13:24;16.60;61.20
28654;DHT22;24320;56.980;24.336;2023-04-15T14:15:51;16.60;60.40
28654;DHT22;24320;56.980;24.336;2023-04-15T14:18:18;16.60;59.60
28654;DHT22;24320;56.980;24.336;2023-04-15T14:20:45;16.70;61.20
28654;DHT22;24320;56.980;24.336;2023-04-15T14:23:12;16.60;59.50
28654;DHT22;24320;56.980;24.336;2023-04-15T14:25:40;16.70;58.50
28654;DHT22;24320;56.980;24.336;2023-04-15T14:28:07;16.60;59.10
28654;DHT22;24320;56.980;24.336;2023-04-15T14:30:34;16.60;58.70
28654;DHT22;24320;56.980;24.336;2023-04-15T14:33:01;16.60;59.20
28654;DHT22;24320;56.980;24.336;2023-04-15T14:35:29;16.60;60.60
28654;DHT22;24320;56.980;24.336;2023-04-15T14:37:56;16.60;58.60
28654;DHT22;24320;56.980;24.336;2023-04-15T14:40:24;16.60;59.70
28654;DHT22;24320;56.980;24.336;2023-04-15T14:42:51;16.60;60.40
28654;DHT22;24320;56.980;24.336;2023-04-15T14:45:18;16.70;58.00
28654;DHT22;24320;56.980;24.336;2023-04-15T14:47:45;16.70;58.90
28654;DHT22;24320;56.980;24.336;2023-04-15T14:50:12;16.90;59.30
28654;DHT22;24320;56.980;24.336;2023-04-15T14:52:40;16.90;58.20
28654;DHT22;24320;56.980;24.336;2023-04-15T14:55:08;16.90;57.90
28654;DHT22;24320;56.980;24.336;2023-04-15T14:57:37;16.80;58.20
28654;DHT22;24320;56.980;24.336;2023-04-15T15:00:05;16.70;58.60
28654;DHT22;24320;56.980;24.336;2023-04-15T15:02:33;16.50;58.00
28654;DHT22;24320;56.980;24.336;2023-04-15T15:05:03;16.30;58.20
28654;DHT22;24320;56.980;24.336;2023-04-15T15:07:30;16.20;57.80
28654;DHT22;24320;56.980;24.336;2023-04-15T15:09:57;16.00;58.80
28654;DHT22;24320;56.980;24.336;2023-04-15T15:12:24;15.90;59.30
28654;DHT22;24320;56.980;24.336;2023-04-15T15:14:51;15.80;59.40
28654;DHT22;24320;56.980;24.336;2023-04-15T15:17:18;15.70;59.50
28654;DHT22;24320;56.980;24.336;2023-04-15T15:19:45;15.60;59.30
28654;DHT22;24320;56.980;24.336;2023-04-15T15:22:12;15.60;59.20
28654;DHT22;24320;56.980;24.336;2023-04-15T15:24:40;15.50;59.50
28654;DHT22;24320;56.980;24.336;2023-04-15T15:27:07;15.40;60.00
28654;DHT22;24320;56.980;24.336;2023-04-15T15:29:34;15.40;60.40
28654;DHT22;24320;56.980;24.336;2023-04-15T15:32:01;15.40;60.10
28654;DHT22;24320;56.980;24.336;2023-04-15T15:34:28;15.30;60.50
28654;DHT22;24320;56.980;24.336;2023-04-15T15:36:55;15.20;60.10
28654;DHT22;24320;56.980;24.336;2023-04-15T15:39:23;15.10;59.60
28654;DHT22;24320;56.980;24.336;2023-04-15T15:41:50;14.90;59.00
28654;DHT22;24320;56.980;24.336;2023-04-15T15:44:17;14.90;59.70
28654;DHT22;24320;56.980;24.336;2023-04-15T15:46:44;14.80;60.40
28654;DHT22;24320;56.980;24.336;2023-04-15T15:49:11;14.80;60.60
28654;DHT22;24320;56.980;24.336;2023-04-15T15:51:38;14.70;60.10